Time;durP1;ratioP1;P1;durP2;ratioP2;P2;SDS_P1;SDS_P2;PMS_P1;PMS_P2;Temp;Humidity;BMP_temperature;BMP_pressure;BME280_temperature;BME280_humidity;BME280_pressure;Samples;Min_cycle;Max_cycle;Signal;HPM_P1;HPM_P2
2021/01/26 00:01:00;;;;;;;8.2;6.1;;;;;;;2.3;82.3;100880.0;;;;
2021/01/26 00:04:59;;;;;;;8.2;6.1;;;;;;;2.2;82.9;100900.0;;;;
2021/01/26 00:14:59;;;;;;;7.8;5.9;;;;;;;2.0;83.5;100880.0;;;;
2021/01/26 00:17:00;;;;;;;7.8;5.9;;;;;;;2.1;83.2;100870.0;;;;
2021/01/26 00:18:59;;;;;;;7.8;5.9;;;;;;;2.2;83.3;100880.0;;;;
2021/01/26 00:28:59;;;;;;;7.8;5.9;;;;;;;2.3;83.9;100890.0;;;;
2021/01/26 00:43:00;;;;;;;7.2;6.4;;;;;;;2.5;83.4;100890.0;;;;
2021/01/26 00:45:00;;;;;;;7.2;6.4;;;;;;;2.3;83.7;100900.0;;;;
2021/01/26 00:46:59;;;;;;;7.2;6.4;;;;;;;2.4;83.6;100900.0;;;;
2021/01/26 00:48:59;;;;;;;7.2;6.4;;;;;;;2.3;83.7;100900.0;;;;
2021/01/26 00:50:59;;;;;;;7.2;6.4;;;;;;;2.5;83.6;100900.0;;;;
2021/01/26 00:53:00;;;;;;;7.2;6.4;;;;;;;2.4;83.4;100890.0;;;;
2021/01/26 00:56:59;;;;;;;12.7;7.9;;;;;;;2.5;83.3;100900.0;;;;
2021/01/26 01:00:59;;;;;;;12.7;7.9;;;;;;;2.4;84.0;100910.0;;;;
2021/01/26 01:03:00;;;;;;;12.7;7.9;;;;;;;2.5;83.8;100910.0;;;;
2021/01/26 01:12:59;;;;;;;12.7;7.9;;;;;;;2.6;84.2;100920.0;;;;
2021/01/26 01:34:59;;;;;;;11.8;7.5;;;;;;;2.7;84.4;100940.0;;;;
2021/01/26 01:36:59;;;;;;;11.8;7.5;;;;;;;2.6;84.2;100940.0;;;;
2021/01/26 01:43:00;;;;;;;11.8;7.5;;;;;;;2.8;84.1;100950.0;;;;
2021/01/26 01:49:02;;;;;;;11.8;7.5;;;;;;;2.7;83.8;100960.0;;;;
2021/01/26 01:53:04;;;;;;;12.3;7.0;;;;;;;2.8;83.9;100960.0;;;;
2021/01/26 01:57:02;;;;;;;12.3;7.0;;;;;;;2.9;83.6;100960.0;;;;
2021/01/26 02:01:04;;;;;;;12.3;7.0;;;;;;;2.8;83.7;100960.0;;;;
2021/01/26 02:03:06;;;;;;;12.3;7.0;;;;;;;2.9;83.5;100960.0;;;;
2021/01/26 02:05:03;;;;;;;12.3;7.0;;;;;;;3.0;83.4;100960.0;;;;
2021/01/26 02:09:05;;;;;;;12.3;7.0;;;;;;;2.9;83.3;100950.0;;;;
2021/01/26 02:13:00;;;;;;;14.6;7.3;;;;;;;3.0;83.4;100960.0;;;;
2021/01/26 02:15:00;;;;;;;14.6;7.3;;;;;;;2.8;83.3;100950.0;;;;
2021/01/26 02:21:19;;;;;;;14.6;7.3;;;;;;;2.7;83.8;100950.0;;;;
2021/01/26 02:27:19;;;;;;;14.6;7.3;;;;;;;2.8;84.4;100990.0;;;;
2021/01/26 02:31:12;;;;;;;14.6;7.3;;;;;;;2.9;83.7;100990.0;;;;
2021/01/26 02:37:19;;;;;;;14.6;6.3;;;;;;;2.8;83.7;101000.0;;;;
2021/01/26 02:59:05;;;;;;;14.5;6.6;;;;;;;2.7;83.8;101020.0;;;;
2021/01/26 03:05:03;;;;;;;14.5;6.6;;;;;;;2.6;84.0;101040.0;;;;
2021/01/26 03:07:03;;;;;;;14.5;6.6;;;;;;;2.7;84.1;101040.0;;;;
2021/01/26 03:11:05;;;;;;;14.5;6.6;;;;;;;2.6;84.4;101050.0;;;;
2021/01/26 03:13:03;;;;;;;11.7;6.1;;;;;;;2.8;84.0;101040.0;;;;
2021/01/26 03:15:04;;;;;;;11.7;6.1;;;;;;;2.7;84.0;101040.0;;;;
2021/01/26 03:19:07;;;;;;;11.7;6.1;;;;;;;2.6;84.3;101040.0;;;;
2021/01/26 03:21:03;;;;;;;11.7;6.1;;;;;;;2.7;83.9;101040.0;;;;
2021/01/26 03:35:00;;;;;;;11.1;7.4;;;;;;;2.6;84.2;101060.0;;;;
2021/01/26 03:39:00;;;;;;;11.1;7.4;;;;;;;2.7;84.1;101080.0;;;;
2021/01/26 03:49:09;;;;;;;11.1;7.4;;;;;;;2.6;84.2;101080.0;;;;
2021/01/26 03:51:06;;;;;;;11.1;7.4;;;;;;;2.7;84.3;101080.0;;;;
2021/01/26 03:53:13;;;;;;;14.2;7.0;;;;;;;2.6;84.5;101090.0;;;;
2021/01/26 03:57:15;;;;;;;14.2;7.0;;;;;;;2.7;84.5;101090.0;;;;
2021/01/26 04:01:13;;;;;;;14.2;7.0;;;;;;;2.6;84.1;101090.0;;;;
2021/01/26 04:03:16;;;;;;;14.2;7.0;;;;;;;2.7;84.0;101080.0;;;;
2021/01/26 04:07:02;;;;;;;14.2;7.0;;;;;;;2.6;84.1;101090.0;;;;
2021/01/26 04:17:08;;;;;;;9.7;5.6;;;;;;;2.5;83.8;101100.0;;;;
2021/01/26 04:21:01;;;;;;;9.7;5.6;;;;;;;2.6;84.2;101100.0;;;;
2021/01/26 04:25:00;;;;;;;9.7;5.6;;;;;;;2.5;84.2;101110.0;;;;
2021/01/26 04:31:00;;;;;;;9.7;5.6;;;;;;;2.6;84.6;101120.0;;;;
2021/01/26 04:33:02;;;;;;;15.6;7.4;;;;;;;2.7;84.3;101120.0;;;;
2021/01/26 04:37:00;;;;;;;15.6;7.4;;;;;;;2.6;84.4;101130.0;;;;
2021/01/26 04:43:07;;;;;;;15.6;7.4;;;;;;;2.7;84.7;101130.0;;;;
2021/01/26 04:47:11;;;;;;;15.6;7.4;;;;;;;2.6;84.6;101130.0;;;;
2021/01/26 04:49:09;;;;;;;15.6;7.4;;;;;;;2.5;84.7;101130.0;;;;
2021/01/26 04:53:14;;;;;;;14.0;6.2;;;;;;;2.6;84.6;101140.0;;;;
2021/01/26 04:55:13;;;;;;;14.0;6.2;;;;;;;2.5;84.6;101150.0;;;;
2021/01/26 05:01:12;;;;;;;14.0;6.2;;;;;;;2.4;84.7;101150.0;;;;
2021/01/26 05:03:19;;;;;;;14.0;6.2;;;;;;;2.5;84.5;101160.0;;;;
2021/01/26 05:07:05;;;;;;;14.0;6.2;;;;;;;2.6;84.2;101160.0;;;;
2021/01/26 05:09:05;;;;;;;14.0;6.2;;;;;;;2.5;84.2;101160.0;;;;
2021/01/26 05:15:04;;;;;;;19.8;7.7;;;;;;;2.4;84.6;101160.0;;;;
2021/01/26 05:17:05;;;;;;;19.8;7.7;;;;;;;2.5;84.6;101160.0;;;;
2021/01/26 05:19:06;;;;;;;19.8;7.7;;;;;;;2.6;84.5;101170.0;;;;
2021/01/26 05:25:03;;;;;;;19.8;7.7;;;;;;;2.7;84.4;101180.0;;;;
2021/01/26 05:27:00;;;;;;;19.8;7.7;;;;;;;2.6;84.4;101180.0;;;;
2021/01/26 05:31:06;;;;;;;19.8;7.7;;;;;;;2.5;84.8;101180.0;;;;
2021/01/26 05:33:03;;;;;;;22.2;7.9;;;;;;;2.6;84.8;101190.0;;;;
2021/01/26 05:35:01;;;;;;;22.2;7.9;;;;;;;2.5;85.0;101190.0;;;;
2021/01/26 05:37:00;;;;;;;22.2;7.9;;;;;;;2.6;84.7;101190.0;;;;
2021/01/26 05:41:07;;;;;;;22.2;7.9;;;;;;;2.5;84.8;101190.0;;;;
2021/01/26 05:47:19;;;;;;;22.2;7.9;;;;;;;2.4;84.7;101200.0;;;;
2021/01/26 05:49:00;;;;;;;22.2;7.9;;;;;;;2.5;84.4;101200.0;;;;
2021/01/26 05:51:19;;;;;;;22.2;7.9;;;;;;;2.4;84.2;101190.0;;;;
2021/01/26 05:59:18;;;;;;;15.8;7.2;;;;;;;2.3;84.5;101200.0;;;;
2021/01/26 06:03:11;;;;;;;15.8;7.2;;;;;;;2.2;84.8;101210.0;;;;
2021/01/26 06:05:05;;;;;;;15.8;7.2;;;;;;;2.3;84.8;101210.0;;;;
2021/01/26 06:11:14;;;;;;;15.8;7.2;;;;;;;2.2;85.0;101220.0;;;;
2021/01/26 06:13:02;;;;;;;15.5;7.1;;;;;;;2.3;84.8;101210.0;;;;
2021/01/26 06:21:03;;;;;;;15.5;7.1;;;;;;;2.4;85.0;101220.0;;;;
2021/01/26 06:31:08;;;;;;;15.5;7.1;;;;;;;2.3;84.6;101250.0;;;;
2021/01/26 06:33:19;;;;;;;14.0;6.1;;;;;;;2.4;84.3;101250.0;;;;
2021/01/26 06:37:10;;;;;;;14.0;6.1;;;;;;;2.3;84.4;101250.0;;;;
2021/01/26 06:39:10;;;;;;;14.0;6.1;;;;;;;2.2;84.4;101260.0;;;;
2021/01/26 06:41:13;;;;;;;14.0;6.1;;;;;;;2.3;84.6;101260.0;;;;
2021/01/26 06:43:08;;;;;;;14.0;6.1;;;;;;;2.4;84.6;101260.0;;;;
2021/01/26 06:45:12;;;;;;;14.0;6.1;;;;;;;2.3;84.5;101260.0;;;;
2021/01/26 06:51:12;;;;;;;14.0;6.1;;;;;;;2.2;84.7;101270.0;;;;
2021/01/26 07:01:11;;;;;;;15.8;7.3;;;;;;;2.3;85.2;101290.0;;;;
2021/01/26 07:11:10;;;;;;;15.8;7.3;;;;;;;2.4;85.3;101310.0;;;;
2021/01/26 07:13:09;;;;;;;18.0;6.2;;;;;;;2.5;84.7;101310.0;;;;
2021/01/26 07:19:19;;;;;;;18.0;6.2;;;;;;;2.4;84.8;101310.0;;;;
2021/01/26 07:21:13;;;;;;;18.0;6.2;;;;;;;2.5;84.8;101330.0;;;;
2021/01/26 07:25:08;;;;;;;18.0;6.2;;;;;;;2.4;85.0;101330.0;;;;
2021/01/26 07:27:16;;;;;;;18.0;6.2;;;;;;;2.5;84.9;101340.0;;;;
2021/01/26 07:33:04;;;;;;;10.5;6.7;;;;;;;2.6;84.5;101360.0;;;;
2021/01/26 07:35:05;;;;;;;10.5;6.7;;;;;;;2.5;84.6;101360.0;;;;
2021/01/26 07:37:13;;;;;;;10.5;6.7;;;;;;;2.6;84.7;101370.0;;;;
2021/01/26 07:41:04;;;;;;;10.5;6.7;;;;;;;2.5;85.0;101370.0;;;;
2021/01/26 07:45:04;;;;;;;10.5;6.7;;;;;;;2.4;85.0;101370.0;;;;
2021/01/26 07:49:05;;;;;;;10.5;6.7;;;;;;;2.5;85.3;101370.0;;;;
2021/01/26 07:55:04;;;;;;;15.8;7.5;;;;;;;2.6;84.8;101390.0;;;;
2021/01/26 07:59:03;;;;;;;15.8;7.5;;;;;;;2.5;84.9;101400.0;;;;
2021/01/26 08:01:02;;;;;;;15.8;7.5;;;;;;;2.6;84.8;101400.0;;;;
2021/01/26 08:05:08;;;;;;;15.8;7.5;;;;;;;2.5;84.8;101410.0;;;;
2021/01/26 08:13:01;;;;;;;11.3;5.5;;;;;;;2.6;85.0;101420.0;;;;
2021/01/26 08:17:04;;;;;;;11.3;5.5;;;;;;;2.5;84.8;101420.0;;;;
2021/01/26 08:31:02;;;;;;;11.3;5.5;;;;;;;2.6;85.1;101440.0;;;;
2021/01/26 08:33:09;;;;;;;5.0;3.9;;;;;;;2.7;84.5;101450.0;;;;
2021/01/26 08:43:02;;;;;;;5.0;3.9;;;;;;;2.8;84.6;101450.0;;;;
2021/01/26 08:44:59;;;;;;;5.0;3.9;;;;;;;2.9;84.2;101460.0;;;;
2021/01/26 08:47:00;;;;;;;5.0;3.9;;;;;;;2.8;84.3;101460.0;;;;
2021/01/26 08:49:04;;;;;;;5.0;3.9;;;;;;;2.9;84.6;101460.0;;;;
2021/01/26 08:56:59;;;;;;;5.8;3.6;;;;;;;3.0;84.4;101480.0;;;;
2021/01/26 09:03:19;;;;;;;5.8;3.6;;;;;;;3.1;84.0;101470.0;;;;
2021/01/26 09:05:00;;;;;;;5.8;3.6;;;;;;;3.0;84.2;101470.0;;;;
2021/01/26 09:06:59;;;;;;;5.8;3.6;;;;;;;3.1;84.2;101480.0;;;;
2021/01/26 09:09:00;;;;;;;5.8;3.6;;;;;;;3.0;84.0;101480.0;;;;
2021/01/26 09:13:08;;;;;;;9.1;3.6;;;;;;;3.1;84.5;101490.0;;;;
2021/01/26 09:17:04;;;;;;;9.1;3.6;;;;;;;3.2;84.2;101500.0;;;;
2021/01/26 09:21:04;;;;;;;9.1;3.6;;;;;;;3.1;84.4;101500.0;;;;
2021/01/26 09:25:04;;;;;;;9.1;3.6;;;;;;;3.0;84.3;101510.0;;;;
2021/01/26 09:28:59;;;;;;;9.1;3.6;;;;;;;3.1;84.5;101520.0;;;;
2021/01/26 09:31:00;;;;;;;7.8;4.4;;;;;;;3.2;84.4;101520.0;;;;
2021/01/26 09:35:08;;;;;;;7.8;4.4;;;;;;;3.3;84.2;101540.0;;;;
2021/01/26 09:51:03;;;;;;;12.6;5.8;;;;;;;3.4;84.4;101560.0;;;;
2021/01/26 09:53:03;;;;;;;12.6;5.8;;;;;;;3.5;83.9;101560.0;;;;
2021/01/26 09:59:00;;;;;;;12.6;5.8;;;;;;;3.6;84.0;101570.0;;;;
2021/01/26 10:03:00;;;;;;;12.6;5.8;;;;;;;3.5;84.2;101580.0;;;;
2021/01/26 10:11:09;;;;;;;10.4;6.4;;;;;;;3.6;84.1;101580.0;;;;
2021/01/26 10:13:19;;;;;;;10.4;6.4;;;;;;;3.5;84.5;101590.0;;;;
2021/01/26 10:15:12;;;;;;;10.4;6.4;;;;;;;3.6;84.3;101590.0;;;;
2021/01/26 10:17:00;;;;;;;10.4;6.4;;;;;;;3.7;84.0;101590.0;;;;
2021/01/26 10:19:09;;;;;;;10.4;6.4;;;;;;;3.6;83.7;101590.0;;;;
2021/01/26 10:35:00;;;;;;;8.6;4.9;;;;;;;3.7;83.9;101600.0;;;;
2021/01/26 10:39:02;;;;;;;8.6;4.9;;;;;;;3.8;83.4;101600.0;;;;
2021/01/26 10:45:00;;;;;;;8.6;4.9;;;;;;;3.9;82.9;101590.0;;;;
2021/01/26 10:54:59;;;;;;;10.2;5.3;;;;;;;4.0;83.2;101600.0;;;;
2021/01/26 10:56:59;;;;;;;10.2;5.3;;;;;;;3.9;83.3;101600.0;;;;
2021/01/26 10:59:00;;;;;;;10.2;5.3;;;;;;;4.0;83.3;101610.0;;;;
2021/01/26 11:01:00;;;;;;;10.2;5.3;;;;;;;3.9;83.6;101600.0;;;;
2021/01/26 11:02:59;;;;;;;10.2;5.3;;;;;;;4.0;83.3;101600.0;;;;
2021/01/26 11:06:59;;;;;;;10.2;5.3;;;;;;;4.1;83.4;101620.0;;;;
2021/01/26 11:08:59;;;;;;;10.2;5.3;;;;;;;4.0;83.2;101610.0;;;;
2021/01/26 11:12:59;;;;;;;9.8;5.2;;;;;;;4.1;83.3;101610.0;;;;
2021/01/26 11:21:00;;;;;;;9.8;5.2;;;;;;;4.2;83.2;101610.0;;;;
2021/01/26 11:28:59;;;;;;;9.8;5.2;;;;;;;4.3;82.8;101610.0;;;;
2021/01/26 11:33:01;;;;;;;10.7;5.7;;;;;;;4.4;82.8;101610.0;;;;
2021/01/26 11:34:59;;;;;;;10.7;5.7;;;;;;;4.5;82.4;101610.0;;;;
2021/01/26 11:38:59;;;;;;;10.7;5.7;;;;;;;4.4;82.7;101610.0;;;;
2021/01/26 11:41:01;;;;;;;10.7;5.7;;;;;;;4.5;82.4;101610.0;;;;
2021/01/26 11:42:59;;;;;;;10.7;5.7;;;;;;;4.3;82.1;101620.0;;;;
2021/01/26 11:50:59;;;;;;;13.8;6.1;;;;;;;4.4;82.3;101610.0;;;;
2021/01/26 11:54:59;;;;;;;13.8;6.1;;;;;;;4.5;82.1;101610.0;;;;
2021/01/26 11:56:59;;;;;;;13.8;6.1;;;;;;;4.4;82.2;101610.0;;;;
2021/01/26 12:03:01;;;;;;;13.8;6.1;;;;;;;4.5;82.3;101610.0;;;;
2021/01/26 12:08:59;;;;;;;13.8;6.1;;;;;;;4.6;82.0;101600.0;;;;
2021/01/26 12:10:59;;;;;;;8.3;5.7;;;;;;;4.7;81.9;101600.0;;;;
2021/01/26 12:13:00;;;;;;;8.3;5.7;;;;;;;4.8;81.5;101610.0;;;;
2021/01/26 12:25:00;;;;;;;8.3;5.7;;;;;;;4.7;81.1;101600.0;;;;
2021/01/26 12:28:59;;;;;;;8.3;5.7;;;;;;;4.9;81.6;101600.0;;;;
2021/01/26 12:34:59;;;;;;;9.0;6.2;;;;;;;4.8;81.5;101610.0;;;;
2021/01/26 12:44:59;;;;;;;9.0;6.2;;;;;;;4.9;81.2;101610.0;;;;
2021/01/26 12:46:59;;;;;;;9.0;6.2;;;;;;;4.8;81.6;101610.0;;;;
2021/01/26 12:48:59;;;;;;;9.0;6.2;;;;;;;4.9;81.1;101610.0;;;;
2021/01/26 12:50:59;;;;;;;12.1;6.2;;;;;;;5.0;81.0;101620.0;;;;
2021/01/26 12:53:00;;;;;;;12.1;6.2;;;;;;;4.9;81.0;101620.0;;;;
2021/01/26 12:54:59;;;;;;;12.1;6.2;;;;;;;4.8;80.9;101620.0;;;;
2021/01/26 12:57:00;;;;;;;12.1;6.2;;;;;;;4.9;81.1;101620.0;;;;
2021/01/26 13:02:59;;;;;;;12.1;6.2;;;;;;;4.8;80.9;101620.0;;;;
2021/01/26 13:04:59;;;;;;;12.1;6.2;;;;;;;4.9;81.6;101620.0;;;;
2021/01/26 13:06:59;;;;;;;12.1;6.2;;;;;;;5.0;81.4;101610.0;;;;
2021/01/26 13:08:59;;;;;;;12.1;6.2;;;;;;;4.9;80.7;101610.0;;;;
2021/01/26 13:10:59;;;;;;;12.2;8.5;;;;;;;5.1;80.9;101610.0;;;;
2021/01/26 13:12:59;;;;;;;12.2;8.5;;;;;;;4.9;81.2;101610.0;;;;
2021/01/26 13:18:59;;;;;;;12.2;8.5;;;;;;;5.0;81.3;101610.0;;;;
2021/01/26 13:23:00;;;;;;;12.2;8.5;;;;;;;4.9;80.8;101610.0;;;;
2021/01/26 13:24:59;;;;;;;12.2;8.5;;;;;;;5.1;81.4;101610.0;;;;
2021/01/26 13:31:00;;;;;;;9.8;8.4;;;;;;;5.2;80.2;101610.0;;;;
2021/01/26 13:35:00;;;;;;;9.8;8.4;;;;;;;5.1;80.6;101610.0;;;;
2021/01/26 13:37:00;;;;;;;9.8;8.4;;;;;;;5.0;80.2;101610.0;;;;
2021/01/26 13:38:59;;;;;;;9.8;8.4;;;;;;;5.2;80.9;101610.0;;;;
2021/01/26 13:43:00;;;;;;;9.8;8.4;;;;;;;5.3;80.3;101610.0;;;;
2021/01/26 13:44:59;;;;;;;9.8;8.4;;;;;;;5.4;80.0;101610.0;;;;
2021/01/26 13:51:00;;;;;;;10.8;7.9;;;;;;;5.5;80.2;101610.0;;;;
2021/01/26 13:56:59;;;;;;;10.8;7.9;;;;;;;5.4;79.7;101610.0;;;;
2021/01/26 13:58:59;;;;;;;10.8;7.9;;;;;;;5.5;80.5;101620.0;;;;
2021/01/26 14:03:01;;;;;;;10.8;7.9;;;;;;;5.6;80.2;101620.0;;;;
2021/01/26 14:04:59;;;;;;;10.8;7.9;;;;;;;5.7;79.3;101630.0;;;;
2021/01/26 14:06:59;;;;;;;10.8;7.9;;;;;;;5.5;79.5;101620.0;;;;
2021/01/26 14:10:59;;;;;;;14.8;6.9;;;;;;;5.4;79.9;101630.0;;;;
2021/01/26 14:18:59;;;;;;;14.8;6.9;;;;;;;5.2;79.3;101640.0;;;;
2021/01/26 14:22:59;;;;;;;14.8;6.9;;;;;;;5.3;79.6;101640.0;;;;
2021/01/26 14:26:59;;;;;;;14.8;6.9;;;;;;;5.1;79.5;101650.0;;;;
2021/01/26 14:33:00;;;;;;;11.6;6.5;;;;;;;5.0;79.7;101650.0;;;;
2021/01/26 14:35:00;;;;;;;11.6;6.5;;;;;;;5.1;79.5;101650.0;;;;
2021/01/26 14:36:59;;;;;;;11.6;6.5;;;;;;;5.2;79.2;101650.0;;;;
2021/01/26 14:38:59;;;;;;;11.6;6.5;;;;;;;5.3;79.4;101660.0;;;;
2021/01/26 14:40:59;;;;;;;11.6;6.5;;;;;;;5.4;79.2;101650.0;;;;
2021/01/26 14:48:59;;;;;;;11.6;6.5;;;;;;;5.3;77.8;101660.0;;;;
2021/01/26 14:52:59;;;;;;;6.9;3.8;;;;;;;5.1;76.6;101660.0;;;;
2021/01/26 14:54:59;;;;;;;6.9;3.8;;;;;;;5.0;76.7;101660.0;;;;
2021/01/26 14:58:59;;;;;;;6.9;3.8;;;;;;;4.8;76.0;101650.0;;;;
2021/01/26 15:02:59;;;;;;;6.9;3.8;;;;;;;4.9;76.3;101650.0;;;;
2021/01/26 15:05:00;;;;;;;6.9;3.8;;;;;;;4.7;75.4;101650.0;;;;
2021/01/26 15:07:00;;;;;;;6.9;3.8;;;;;;;4.8;75.7;101650.0;;;;
2021/01/26 15:13:00;;;;;;;6.5;3.2;;;;;;;4.7;75.8;101660.0;;;;
2021/01/26 15:18:59;;;;;;;6.5;3.2;;;;;;;4.6;76.2;101660.0;;;;
2021/01/26 15:20:59;;;;;;;6.5;3.2;;;;;;;4.4;76.2;101660.0;;;;
2021/01/26 15:22:59;;;;;;;6.5;3.2;;;;;;;4.5;76.8;101660.0;;;;
2021/01/26 15:24:59;;;;;;;6.5;3.2;;;;;;;4.7;76.7;101660.0;;;;
2021/01/26 15:26:59;;;;;;;6.5;3.2;;;;;;;4.5;75.5;101660.0;;;;
2021/01/26 15:29:00;;;;;;;6.5;3.2;;;;;;;4.6;76.0;101660.0;;;;
2021/01/26 15:37:00;;;;;;;6.2;3.8;;;;;;;4.7;76.8;101660.0;;;;
2021/01/26 15:41:00;;;;;;;6.2;3.8;;;;;;;4.6;76.5;101670.0;;;;
2021/01/26 15:44:59;;;;;;;6.2;3.8;;;;;;;4.5;75.9;101670.0;;;;
2021/01/26 15:46:59;;;;;;;6.2;3.8;;;;;;;4.6;76.4;101660.0;;;;
2021/01/26 15:50:59;;;;;;;8.2;5.1;;;;;;;4.5;75.4;101660.0;;;;
2021/01/26 15:54:59;;;;;;;8.2;5.1;;;;;;;4.4;76.2;101670.0;;;;
2021/01/26 15:58:59;;;;;;;8.2;5.1;;;;;;;4.3;75.3;101660.0;;;;
2021/01/26 16:04:59;;;;;;;8.2;5.1;;;;;;;4.2;75.5;101660.0;;;;
2021/01/26 16:14:59;;;;;;;6.1;5.0;;;;;;;4.1;75.9;101660.0;;;;
2021/01/26 16:26:59;;;;;;;6.1;5.0;;;;;;;4.0;76.6;101680.0;;;;
2021/01/26 16:28:59;;;;;;;18.8;7.6;;;;;;;4.1;76.8;101680.0;;;;
2021/01/26 16:30:59;;;;;;;18.8;7.6;;;;;;;4.0;76.4;101680.0;;;;
2021/01/26 16:33:01;;;;;;;18.8;7.6;;;;;;;3.9;76.0;101680.0;;;;
2021/01/26 16:41:00;;;;;;;18.8;7.6;;;;;;;3.8;76.1;101680.0;;;;
2021/01/26 16:47:00;;;;;;;18.8;7.6;;;;;;;3.7;76.3;101670.0;;;;
2021/01/26 16:49:00;;;;;;;15.9;7.9;;;;;;;3.8;76.4;101670.0;;;;
2021/01/26 16:50:59;;;;;;;15.9;7.9;;;;;;;3.7;76.4;101670.0;;;;
2021/01/26 16:54:59;;;;;;;15.9;7.9;;;;;;;3.6;76.7;101670.0;;;;
2021/01/26 17:03:00;;;;;;;15.9;7.9;;;;;;;3.7;77.4;101660.0;;;;
2021/01/26 17:04:59;;;;;;;15.9;7.9;;;;;;;3.6;76.5;101660.0;;;;
2021/01/26 17:08:59;;;;;;;9.5;4.7;;;;;;;3.7;76.9;101660.0;;;;
2021/01/26 17:11:00;;;;;;;9.5;4.7;;;;;;;3.6;76.4;101670.0;;;;
2021/01/26 17:14:59;;;;;;;9.5;4.7;;;;;;;3.5;76.4;101670.0;;;;
2021/01/26 17:16:59;;;;;;;9.5;4.7;;;;;;;3.6;77.1;101670.0;;;;
2021/01/26 17:21:00;;;;;;;9.5;4.7;;;;;;;3.5;76.8;101670.0;;;;
2021/01/26 17:22:59;;;;;;;9.5;4.7;;;;;;;3.6;77.1;101660.0;;;;
2021/01/26 17:26:59;;;;;;;9.5;4.7;;;;;;;3.7;76.9;101660.0;;;;
2021/01/26 17:28:59;;;;;;;7.7;5.7;;;;;;;3.6;77.6;101670.0;;;;
2021/01/26 17:37:00;;;;;;;7.7;5.7;;;;;;;3.7;77.2;101660.0;;;;
2021/01/26 17:38:59;;;;;;;7.7;5.7;;;;;;;3.6;77.6;101670.0;;;;
2021/01/26 17:40:59;;;;;;;7.7;5.7;;;;;;;3.7;77.4;101660.0;;;;
2021/01/26 17:42:59;;;;;;;7.7;5.7;;;;;;;3.6;77.0;101660.0;;;;
2021/01/26 17:47:00;;;;;;;7.7;5.7;;;;;;;3.5;77.1;101670.0;;;;
2021/01/26 17:48:59;;;;;;;8.8;7.5;;;;;;;3.6;77.3;101670.0;;;;
2021/01/26 17:56:59;;;;;;;8.8;7.5;;;;;;;3.5;76.9;101670.0;;;;
2021/01/26 17:58:59;;;;;;;8.8;7.5;;;;;;;3.4;76.5;101670.0;;;;
2021/01/26 18:00:59;;;;;;;8.8;7.5;;;;;;;3.5;77.5;101660.0;;;;
2021/01/26 18:06:59;;;;;;;8.8;7.5;;;;;;;3.4;77.0;101670.0;;;;
2021/01/26 18:09:00;;;;;;;11.2;8.0;;;;;;;3.5;77.3;101670.0;;;;
2021/01/26 18:17:04;;;;;;;11.2;8.0;;;;;;;3.4;77.7;101660.0;;;;
2021/01/26 18:18:59;;;;;;;11.2;8.0;;;;;;;3.5;77.8;101650.0;;;;
2021/01/26 18:26:59;;;;;;;11.2;8.0;;;;;;;3.4;77.9;101640.0;;;;
2021/01/26 18:33:00;;;;;;;10.7;9.1;;;;;;;3.5;78.0;101640.0;;;;
2021/01/26 18:34:59;;;;;;;10.7;9.1;;;;;;;3.4;77.5;101650.0;;;;
2021/01/26 18:39:00;;;;;;;10.7;9.1;;;;;;;3.5;77.4;101640.0;;;;
2021/01/26 18:40:59;;;;;;;10.7;9.1;;;;;;;3.4;78.1;101650.0;;;;
2021/01/26 18:43:00;;;;;;;10.7;9.1;;;;;;;3.3;77.7;101650.0;;;;
2021/01/26 18:49:01;;;;;;;14.3;10.7;;;;;;;3.4;78.1;101640.0;;;;
2021/01/26 18:50:59;;;;;;;14.3;10.7;;;;;;;3.3;78.3;101640.0;;;;
2021/01/26 18:56:59;;;;;;;14.3;10.7;;;;;;;3.4;78.1;101630.0;;;;
2021/01/26 19:00:59;;;;;;;14.3;10.7;;;;;;;3.3;78.0;101640.0;;;;
2021/01/26 19:06:59;;;;;;;14.3;10.7;;;;;;;3.2;78.8;101640.0;;;;
2021/01/26 19:09:00;;;;;;;13.6;11.0;;;;;;;3.3;78.6;101630.0;;;;
2021/01/26 19:12:59;;;;;;;13.6;11.0;;;;;;;3.4;78.3;101620.0;;;;
2021/01/26 19:19:00;;;;;;;13.6;11.0;;;;;;;3.3;78.8;101630.0;;;;
2021/01/26 19:23:01;;;;;;;13.6;11.0;;;;;;;3.5;78.8;101630.0;;;;
2021/01/26 19:25:00;;;;;;;13.6;11.0;;;;;;;3.3;78.8;101630.0;;;;
2021/01/26 19:26:59;;;;;;;13.6;11.0;;;;;;;3.4;78.8;101630.0;;;;
2021/01/26 19:32:59;;;;;;;12.8;11.1;;;;;;;3.3;78.6;101630.0;;;;
2021/01/26 19:34:59;;;;;;;12.8;11.1;;;;;;;3.4;78.5;101630.0;;;;
2021/01/26 19:37:03;;;;;;;12.8;11.1;;;;;;;3.3;78.5;101630.0;;;;
2021/01/26 19:39:00;;;;;;;12.8;11.1;;;;;;;3.4;78.8;101630.0;;;;
2021/01/26 19:41:00;;;;;;;12.8;11.1;;;;;;;3.3;78.5;101630.0;;;;
2021/01/26 19:43:00;;;;;;;12.8;11.1;;;;;;;3.2;78.7;101630.0;;;;
2021/01/26 19:45:01;;;;;;;12.8;11.1;;;;;;;3.3;78.9;101630.0;;;;
2021/01/26 19:47:00;;;;;;;12.8;11.1;;;;;;;3.4;78.8;101630.0;;;;
2021/01/26 19:48:59;;;;;;;15.8;12.0;;;;;;;3.3;79.0;101630.0;;;;
2021/01/26 19:58:59;;;;;;;15.8;12.0;;;;;;;3.4;78.7;101640.0;;;;
2021/01/26 20:00:59;;;;;;;15.8;12.0;;;;;;;3.2;79.0;101640.0;;;;
2021/01/26 20:04:59;;;;;;;15.8;12.0;;;;;;;3.3;78.7;101650.0;;;;
2021/01/26 20:11:00;;;;;;;28.2;13.9;;;;;;;3.2;78.6;101620.0;;;;
2021/01/26 20:12:59;;;;;;;28.2;13.9;;;;;;;3.3;78.3;101610.0;;;;
2021/01/26 20:15:00;;;;;;;28.2;13.9;;;;;;;3.2;78.9;101610.0;;;;
2021/01/26 20:16:59;;;;;;;28.2;13.9;;;;;;;3.1;79.0;101610.0;;;;
2021/01/26 20:19:00;;;;;;;28.2;13.9;;;;;;;3.2;78.8;101610.0;;;;
2021/01/26 20:21:00;;;;;;;28.2;13.9;;;;;;;3.1;78.6;101600.0;;;;
2021/01/26 20:25:01;;;;;;;28.2;13.9;;;;;;;3.2;78.9;101600.0;;;;
2021/01/26 20:28:59;;;;;;;13.4;11.9;;;;;;;3.0;78.2;101590.0;;;;
2021/01/26 20:33:00;;;;;;;13.4;11.9;;;;;;;3.2;78.4;101590.0;;;;
2021/01/26 20:35:01;;;;;;;13.4;11.9;;;;;;;3.1;77.5;101590.0;;;;
2021/01/26 20:37:01;;;;;;;13.4;11.9;;;;;;;3.0;78.2;101590.0;;;;
2021/01/26 20:41:00;;;;;;;13.4;11.9;;;;;;;3.1;78.0;101600.0;;;;
2021/01/26 20:43:02;;;;;;;13.4;11.9;;;;;;;3.0;78.3;101600.0;;;;
2021/01/26 20:47:04;;;;;;;13.4;11.9;;;;;;;3.1;78.2;101610.0;;;;
2021/01/26 20:57:00;;;;;;;12.4;11.1;;;;;;;3.2;77.8;101600.0;;;;
2021/01/26 20:58:59;;;;;;;12.4;11.1;;;;;;;3.1;77.5;101600.0;;;;
2021/01/26 21:01:00;;;;;;;12.4;11.1;;;;;;;3.0;77.6;101600.0;;;;
2021/01/26 21:03:00;;;;;;;12.4;11.1;;;;;;;2.9;77.9;101600.0;;;;
2021/01/26 21:04:59;;;;;;;12.4;11.1;;;;;;;3.0;77.6;101600.0;;;;
2021/01/26 21:07:00;;;;;;;12.4;11.1;;;;;;;2.9;76.7;101590.0;;;;
2021/01/26 21:10:59;;;;;;;11.5;10.3;;;;;;;3.0;77.6;101590.0;;;;
2021/01/26 21:15:00;;;;;;;11.5;10.3;;;;;;;2.9;77.1;101590.0;;;;
2021/01/26 21:16:59;;;;;;;11.5;10.3;;;;;;;2.8;76.9;101590.0;;;;
2021/01/26 21:27:00;;;;;;;11.5;10.3;;;;;;;2.9;77.0;101590.0;;;;
2021/01/26 21:28:59;;;;;;;10.3;9.3;;;;;;;2.8;75.9;101590.0;;;;
2021/01/26 21:30:59;;;;;;;10.3;9.3;;;;;;;2.7;75.7;101580.0;;;;
2021/01/26 21:33:00;;;;;;;10.3;9.3;;;;;;;2.8;76.3;101580.0;;;;
2021/01/26 21:36:59;;;;;;;10.3;9.3;;;;;;;2.7;76.0;101580.0;;;;
2021/01/26 21:46:59;;;;;;;10.3;9.3;;;;;;;2.5;74.7;101560.0;;;;
2021/01/26 21:48:59;;;;;;;9.3;8.4;;;;;;;2.7;75.3;101560.0;;;;
2021/01/26 21:50:59;;;;;;;9.3;8.4;;;;;;;2.6;75.7;101570.0;;;;
2021/01/26 21:55:00;;;;;;;9.3;8.4;;;;;;;2.7;76.5;101560.0;;;;
2021/01/26 21:56:59;;;;;;;9.3;8.4;;;;;;;2.6;76.0;101560.0;;;;
2021/01/26 22:00:59;;;;;;;9.3;8.4;;;;;;;2.5;75.6;101560.0;;;;
2021/01/26 22:03:00;;;;;;;9.3;8.4;;;;;;;2.7;76.0;101550.0;;;;
2021/01/26 22:06:59;;;;;;;9.3;8.4;;;;;;;2.6;76.0;101550.0;;;;
2021/01/26 22:10:59;;;;;;;13.2;9.1;;;;;;;2.7;75.7;101550.0;;;;
2021/01/26 22:15:00;;;;;;;13.2;9.1;;;;;;;2.6;75.8;101550.0;;;;
2021/01/26 22:16:59;;;;;;;13.2;9.1;;;;;;;2.7;75.9;101540.0;;;;
2021/01/26 22:20:59;;;;;;;13.2;9.1;;;;;;;2.8;75.6;101530.0;;;;
2021/01/26 22:23:03;;;;;;;13.2;9.1;;;;;;;2.7;75.6;101530.0;;;;
2021/01/26 22:24:59;;;;;;;13.2;9.1;;;;;;;2.6;74.7;101530.0;;;;
2021/01/26 22:32:59;;;;;;;13.0;9.7;;;;;;;2.5;75.5;101520.0;;;;
2021/01/26 22:39:00;;;;;;;13.0;9.7;;;;;;;2.4;75.1;101520.0;;;;
2021/01/26 22:41:00;;;;;;;13.0;9.7;;;;;;;2.5;75.8;101520.0;;;;
2021/01/26 22:49:00;;;;;;;11.3;9.4;;;;;;;2.6;76.1;101520.0;;;;
2021/01/26 22:52:59;;;;;;;11.3;9.4;;;;;;;2.7;75.9;101520.0;;;;
2021/01/26 22:55:00;;;;;;;11.3;9.4;;;;;;;2.5;75.5;101510.0;;;;
2021/01/26 22:58:59;;;;;;;11.3;9.4;;;;;;;2.6;74.5;101520.0;;;;
2021/01/26 23:03:00;;;;;;;11.3;9.4;;;;;;;2.5;74.8;101510.0;;;;
2021/01/26 23:04:59;;;;;;;11.3;9.4;;;;;;;2.6;75.8;101510.0;;;;
2021/01/26 23:06:59;;;;;;;9.8;8.8;;;;;;;2.5;75.4;101510.0;;;;
2021/01/26 23:11:00;;;;;;;9.8;8.8;;;;;;;2.4;75.1;101510.0;;;;
2021/01/26 23:18:59;;;;;;;9.8;8.8;;;;;;;2.5;74.8;101490.0;;;;
2021/01/26 23:20:59;;;;;;;9.8;8.8;;;;;;;2.4;74.2;101490.0;;;;
2021/01/26 23:23:00;;;;;;;9.8;8.8;;;;;;;2.5;75.4;101490.0;;;;
2021/01/26 23:26:59;;;;;;;9.8;8.6;;;;;;;2.4;74.5;101480.0;;;;
2021/01/26 23:36:59;;;;;;;9.8;8.6;;;;;;;2.5;74.4;101460.0;;;;
2021/01/26 23:38:59;;;;;;;9.8;8.6;;;;;;;2.4;74.1;101470.0;;;;
2021/01/26 23:40:59;;;;;;;9.8;8.6;;;;;;;2.2;73.2;101470.0;;;;
2021/01/26 23:43:00;;;;;;;9.8;8.6;;;;;;;2.3;74.2;101470.0;;;;
2021/01/26 23:44:59;;;;;;;9.8;8.6;;;;;;;2.4;75.2;101470.0;;;;
2021/01/26 23:48:59;;;;;;;8.6;7.7;;;;;;;2.3;74.5;101480.0;;;;
2021/01/26 23:50:59;;;;;;;8.6;7.7;;;;;;;2.4;75.1;101480.0;;;;
2021/01/26 23:53:00;;;;;;;8.6;7.7;;;;;;;2.3;73.9;101480.0;;;;
2021/01/26 23:56:59;;;;;;;8.6;7.7;;;;;;;2.4;74.2;101460.0;;;;
2021/01/26 23:58:59;;;;;;;8.6;7.7;;;;;;;2.3;74.5;101460.0;;;;
